Time;durP1;ratioP1;P1;durP2;ratioP2;P2;SDS_P1;SDS_P2;PMS_P1;PMS_P2;Temp;Humidity;BMP_temperature;BMP_pressure;BME280_temperature;BME280_humidity;BME280_pressure;Samples;Min_cycle;Max_cycle;Signal;HPM_P1;HPM_P2
2023/05/09 00:01:30;;;;;;;20.80;17.60;;;;;;;4.12;100.00;99954.70;109519;1252;59026;-71
2023/05/09 00:03:58;;;;;;;20.70;16.90;;;;;;;4.14;100.00;99952.70;109518;1253;59290;-71
2023/05/09 00:06:26;;;;;;;23.60;16.80;;;;;;;4.19;100.00;99952.05;109159;1252;64063;-71
2023/05/09 00:08:53;;;;;;;22.40;16.20;;;;;;;4.23;100.00;99951.42;109331;1256;58994;-71
2023/05/09 00:11:21;;;;;;;19.30;15.60;;;;;;;4.27;100.00;99947.98;109511;1253;58883;-71
2023/05/09 00:13:49;;;;;;;17.80;13.90;;;;;;;4.31;100.00;99947.00;109524;1253;64501;-71
2023/05/09 00:16:17;;;;;;;18.10;13.90;;;;;;;4.33;100.00;99943.94;109518;1253;60204;-71
2023/05/09 00:18:43;;;;;;;19.50;13.60;;;;;;;4.35;100.00;99941.60;109546;1253;64040;-71
2023/05/09 00:21:10;;;;;;;17.00;13.10;;;;;;;4.37;100.00;99940.85;109449;1252;58869;-71
2023/05/09 00:23:37;;;;;;;15.40;12.50;;;;;;;4.38;100.00;99935.55;109456;1254;59030;-71
2023/05/09 00:26:04;;;;;;;14.80;12.60;;;;;;;4.40;100.00;99932.51;109502;1254;66255;-71
2023/05/09 00:28:31;;;;;;;17.50;13.50;;;;;;;4.42;100.00;99935.45;109529;1254;60185;-71
2023/05/09 00:30:57;;;;;;;15.80;12.90;;;;;;;4.44;100.00;99934.86;109487;1254;62866;-72
2023/05/09 00:33:27;;;;;;;17.30;12.50;;;;;;;4.46;100.00;99928.15;109500;1252;58974;-71
2023/05/09 00:35:54;;;;;;;15.30;11.90;;;;;;;4.46;100.00;99931.29;109517;1254;59100;-71
2023/05/09 00:38:22;;;;;;;15.70;12.20;;;;;;;4.47;100.00;99930.02;109488;1254;65741;-71
2023/05/09 00:40:49;;;;;;;16.50;13.10;;;;;;;4.48;100.00;99927.90;109525;1253;60117;-71
2023/05/09 00:43:15;;;;;;;14.10;12.60;;;;;;;4.48;100.00;99924.20;109239;1252;64080;-71
2023/05/09 00:45:44;;;;;;;15.50;12.70;;;;;;;4.49;100.00;99922.59;109488;1253;59048;-71
2023/05/09 00:48:10;;;;;;;17.10;12.40;;;;;;;4.50;100.00;99920.46;109380;1252;59051;-71
2023/05/09 00:50:37;;;;;;;18.20;12.80;;;;;;;4.51;100.00;99916.23;109443;1254;67227;-71
2023/05/09 00:53:03;;;;;;;14.80;11.80;;;;;;;4.50;100.00;99916.77;109564;1253;60224;-71
2023/05/09 00:55:30;;;;;;;13.70;11.50;;;;;;;4.47;100.00;99917.38;109483;1254;64152;-71
2023/05/09 00:57:57;;;;;;;16.20;13.10;;;;;;;4.40;100.00;99917.91;109529;1252;58978;-71
2023/05/09 01:00:24;;;;;;;17.00;13.00;;;;;;;4.31;100.00;99919.37;109500;1254;59137;-71
2023/05/09 01:02:54;;;;;;;19.70;14.20;;;;;;;4.22;100.00;99916.44;109511;1253;64828;-71
2023/05/09 01:05:24;;;;;;;26.50;14.80;;;;;;;4.15;100.00;99918.56;109503;1252;59006;-71
2023/05/09 01:08:09;;;;;;;;;;;;;;;4.09;100.00;99920.30;109507;1253;64048;-73
2023/05/09 01:10:46;;;;;;;16.80;14.00;;;;;;;4.00;100.00;99921.58;109439;1253;58996;-71
2023/05/09 01:13:31;;;;;;;19.60;15.80;;;;;;;3.91;100.00;99920.40;109161;1253;59038;-71
2023/05/09 01:16:11;;;;;;;19.00;14.80;;;;;;;3.86;100.00;99918.25;109333;1253;64855;-71
2023/05/09 01:19:07;;;;;;;22.00;15.30;;;;;;;3.83;100.00;99913.73;109508;1253;59230;-71
2023/05/09 01:21:34;;;;;;;18.60;14.90;;;;;;;3.83;100.00;99909.54;109508;1253;62802;-71
2023/05/09 01:24:03;;;;;;;21.10;15.90;;;;;;;3.83;100.00;99911.30;109535;1252;58985;-71
2023/05/09 01:26:36;;;;;;;17.70;14.20;;;;;;;3.79;100.00;99916.30;109516;1252;58966;-71
2023/05/09 01:29:32;;;;;;;18.90;14.00;;;;;;;3.69;100.00;99917.42;109503;1252;64528;-71
2023/05/09 01:32:05;;;;;;;15.90;13.60;;;;;;;3.55;100.00;99916.35;109496;1254;60153;-71
2023/05/09 01:34:34;;;;;;;17.90;15.70;;;;;;;3.45;100.00;99919.75;109474;1253;63751;-71
2023/05/09 01:37:04;;;;;;;21.60;17.40;;;;;;;3.36;100.00;99917.48;109512;1253;59134;-72
2023/05/09 01:39:33;;;;;;;21.30;16.00;;;;;;;3.28;100.00;99914.50;109502;1252;59107;-71
2023/05/09 01:42:02;;;;;;;19.30;15.80;;;;;;;3.22;100.00;99913.08;109353;1253;64817;-71
2023/05/09 01:44:35;;;;;;;19.20;16.20;;;;;;;3.15;100.00;99908.48;109495;1254;60169;-71
2023/05/09 01:47:03;;;;;;;21.60;16.10;;;;;;;3.08;100.00;99904.77;108713;1252;1003426;-71
2023/05/09 01:49:32;;;;;;;19.70;16.60;;;;;;;3.03;100.00;99906.45;109477;1253;58997;-71
2023/05/09 01:52:02;;;;;;;19.40;16.70;;;;;;;2.98;100.00;99911.46;109479;1252;59144;-71
2023/05/09 01:54:31;;;;;;;17.60;15.70;;;;;;;2.93;100.00;99908.77;109385;1251;66065;-71
2023/05/09 01:56:58;;;;;;;22.00;17.90;;;;;;;2.88;100.00;99902.91;109473;1252;59064;-72
2023/05/09 01:59:27;;;;;;;21.80;17.60;;;;;;;2.88;100.00;99905.05;109478;1253;64062;-71
2023/05/09 02:01:55;;;;;;;27.40;19.90;;;;;;;2.88;100.00;99901.17;109456;1252;58935;-71
2023/05/09 02:04:22;;;;;;;20.90;18.60;;;;;;;2.87;100.00;99897.33;109357;1252;59047;-71
2023/05/09 02:06:50;;;;;;;22.30;19.20;;;;;;;2.85;100.00;99894.72;109491;1254;66053;-71
2023/05/09 02:09:18;;;;;;;24.60;20.10;;;;;;;2.83;100.00;99891.78;108443;1252;1002125;-72
2023/05/09 02:11:45;;;;;;;25.00;20.80;;;;;;;2.79;100.00;99891.86;109487;1253;62815;-71
2023/05/09 02:14:13;;;;;;;23.70;20.20;;;;;;;2.76;100.00;99891.05;109493;1253;58966;-71
2023/05/09 02:16:39;;;;;;;28.80;22.60;;;;;;;2.72;100.00;99893.94;109527;1252;59862;-71
2023/05/09 02:19:06;;;;;;;27.70;21.70;;;;;;;2.69;100.00;99895.58;109476;1251;64893;-71
2023/05/09 02:21:33;;;;;;;27.70;20.90;;;;;;;2.65;100.00;99896.38;109289;1254;60108;-72
2023/05/09 02:23:59;;;;;;;22.70;19.10;;;;;;;2.60;100.00;99898.05;109509;1253;64058;-71
2023/05/09 02:26:27;;;;;;;21.70;17.90;;;;;;;2.55;100.00;99897.61;109453;1254;59045;-72
2023/05/09 02:28:54;;;;;;;24.00;20.30;;;;;;;2.51;100.00;99901.56;109245;1253;59005;-71
2023/05/09 02:31:24;;;;;;;24.30;18.60;;;;;;;2.47;100.00;99899.53;109447;1253;66011;-72
2023/05/09 02:33:53;;;;;;;21.50;18.70;;;;;;;2.43;100.00;99897.69;109516;1253;60605;-71
2023/05/09 02:36:21;;;;;;;24.30;21.60;;;;;;;2.39;100.00;99894.60;109482;1254;63727;-71
2023/05/09 02:38:48;;;;;;;28.00;23.80;;;;;;;2.36;100.00;99897.11;109461;1252;58966;-72
2023/05/09 02:41:16;;;;;;;26.90;23.50;;;;;;;2.34;100.00;99897.33;109502;1254;58962;-71
2023/05/09 02:43:42;;;;;;;29.50;24.00;;;;;;;2.35;100.00;99895.20;109501;1252;67466;-71
2023/05/09 02:46:09;;;;;;;28.30;23.80;;;;;;;2.36;100.00;99896.93;109491;1252;60160;-72
2023/05/09 02:48:36;;;;;;;30.20;26.10;;;;;;;2.35;100.00;99902.93;109430;1252;62732;-71
2023/05/09 02:51:03;;;;;;;33.00;28.80;;;;;;;2.33;100.00;99902.09;109424;1252;58923;-71
2023/05/09 02:53:30;;;;;;;30.60;27.30;;;;;;;2.29;100.00;99899.16;109496;1253;59018;-69
2023/05/09 02:55:57;;;;;;;28.90;25.70;;;;;;;2.26;100.00;99897.13;109500;1251;75796;-72
2023/05/09 02:58:24;;;;;;;29.10;25.70;;;;;;;2.24;100.00;99897.16;109487;1254;58951;-72
2023/05/09 03:00:50;;;;;;;31.30;27.40;;;;;;;2.22;100.00;99898.78;109452;1252;71766;-71
2023/05/09 03:03:17;;;;;;;29.50;26.30;;;;;;;2.19;100.00;99897.95;109449;1252;59443;-71
2023/05/09 03:05:44;;;;;;;29.40;24.20;;;;;;;2.18;100.00;99900.24;109440;1252;60073;-71
2023/05/09 03:08:10;;;;;;;28.50;23.60;;;;;;;2.17;100.00;99896.95;109276;1253;66015;-71
2023/05/09 03:10:37;;;;;;;28.60;23.60;;;;;;;2.17;100.00;99899.23;108723;1252;1002479;-70
2023/05/09 03:13:03;;;;;;;28.40;25.20;;;;;;;2.17;100.00;99900.80;108669;1252;1002969;-70
2023/05/09 03:15:30;;;;;;;31.20;25.10;;;;;;;2.17;100.00;99896.06;109458;1253;59029;-70
2023/05/09 03:17:57;;;;;;;27.70;24.50;;;;;;;2.18;100.00;99897.27;109468;1252;59030;-71
2023/05/09 03:20:25;;;;;;;30.70;24.40;;;;;;;2.20;100.00;99896.88;109511;1251;66013;-70
2023/05/09 03:22:52;;;;;;;31.10;25.90;;;;;;;2.21;100.00;99894.93;109485;1253;60173;-70
2023/05/09 03:25:18;;;;;;;31.90;24.20;;;;;;;2.23;100.00;99892.61;109334;1253;62827;-70
2023/05/09 03:27:45;;;;;;;31.00;25.90;;;;;;;2.25;100.00;99892.23;109496;1253;58964;-70
2023/05/09 03:30:12;;;;;;;27.10;24.20;;;;;;;2.29;100.00;99890.75;109202;1252;59222;-70
2023/05/09 03:32:38;;;;;;;31.60;26.60;;;;;;;2.38;100.00;99889.71;109160;1252;66005;-70
2023/05/09 03:35:05;;;;;;;29.80;26.20;;;;;;;2.76;100.00;99885.96;109479;1254;59917;-70
2023/05/09 03:37:32;;;;;;;34.50;27.90;;;;;;;3.39;100.00;99879.84;109485;1252;64035;-70
2023/05/09 03:39:58;;;;;;;30.20;27.00;;;;;;;4.03;100.00;99879.30;109460;1252;58936;-70
2023/05/09 03:42:25;;;;;;;29.30;24.60;;;;;;;4.64;100.00;99872.53;109453;1252;59277;-70
2023/05/09 03:44:51;;;;;;;26.10;23.40;;;;;;;5.26;100.00;99868.92;109307;1253;59034;-70
2023/05/09 03:47:18;;;;;;;23.70;21.20;;;;;;;5.86;100.00;99869.63;109485;1252;61421;-71
2023/05/09 03:49:45;;;;;;;23.70;21.10;;;;;;;6.41;100.00;99869.52;109430;1252;64110;-71
2023/05/09 03:52:11;;;;;;;21.70;19.40;;;;;;;6.88;100.00;99871.88;109495;1252;59105;-71
2023/05/09 03:54:38;;;;;;;23.20;19.40;;;;;;;7.31;100.00;99868.79;109415;1252;58969;-70
2023/05/09 03:57:04;;;;;;;33.90;30.30;;;;;;;7.74;100.00;99864.56;109343;1253;59371;-70
2023/05/09 03:59:31;;;;;;;23.10;20.50;;;;;;;8.33;100.00;99862.45;109473;1253;58995;-71
2023/05/09 04:01:57;;;;;;;22.70;20.30;;;;;;;8.87;100.00;99858.45;109476;1253;59065;-71
2023/05/09 04:04:24;;;;;;;21.60;19.20;;;;;;;9.33;100.00;99862.64;109423;1251;59009;-71
2023/05/09 04:06:51;;;;;;;22.10;19.80;;;;;;;9.80;100.00;99861.27;109522;1252;58886;-71
2023/05/09 04:09:18;;;;;;;19.40;17.50;;;;;;;10.22;99.11;99866.06;109495;1252;66023;-70
2023/05/09 04:11:45;;;;;;;19.20;16.90;;;;;;;10.58;95.82;99866.16;109414;1253;59111;-71
2023/05/09 04:14:12;;;;;;;18.80;16.90;;;;;;;10.88;92.78;99861.89;109463;1253;64084;-71
2023/05/09 04:16:38;;;;;;;19.40;17.30;;;;;;;11.18;90.91;99856.35;109474;1252;58930;-71
2023/05/09 04:19:06;;;;;;;18.90;16.80;;;;;;;11.60;90.41;99857.34;109428;1253;58966;-71
2023/05/09 04:21:32;;;;;;;16.90;15.00;;;;;;;12.09;88.98;99855.23;109456;1252;64873;-71
2023/05/09 04:23:58;;;;;;;19.00;15.30;;;;;;;12.50;86.97;99857.73;109480;1252;58922;-71
2023/05/09 04:26:25;;;;;;;17.10;15.40;;;;;;;12.83;85.63;99853.91;109411;1252;58990;-71
2023/05/09 04:28:52;;;;;;;16.40;14.80;;;;;;;13.01;84.80;99855.49;109433;1253;59319;-71
2023/05/09 04:31:18;;;;;;;15.10;13.80;;;;;;;13.30;83.46;99861.50;109484;1251;58953;-71
2023/05/09 04:33:45;;;;;;;16.00;14.40;;;;;;;13.53;81.70;99860.36;109481;1252;59612;-71
2023/05/09 04:36:11;;;;;;;15.00;13.50;;;;;;;13.77;80.63;99859.16;109197;1252;59039;-70
2023/05/09 04:38:38;;;;;;;16.00;14.40;;;;;;;13.83;79.75;99859.29;109442;1252;58993;-71
2023/05/09 04:41:04;;;;;;;15.70;14.10;;;;;;;14.04;79.02;99858.61;109193;1252;58995;-71
2023/05/09 04:43:31;;;;;;;14.60;13.20;;;;;;;14.36;78.18;99859.08;109454;1252;59008;-71
2023/05/09 04:45:58;;;;;;;15.20;13.60;;;;;;;14.59;77.32;99858.77;109278;1251;66032;-71
2023/05/09 04:48:24;;;;;;;15.50;13.80;;;;;;;14.80;76.42;99851.63;109535;1253;60111;-71
2023/05/09 04:50:50;;;;;;;14.30;13.00;;;;;;;14.93;75.51;99851.23;109482;1252;59055;-71
2023/05/09 04:53:17;;;;;;;15.00;13.70;;;;;;;15.13;75.35;99853.02;109447;1252;58998;-71
2023/05/09 04:55:43;;;;;;;14.90;13.50;;;;;;;15.39;74.69;99848.79;109484;1252;59048;-71
2023/05/09 04:58:10;;;;;;;15.60;13.90;;;;;;;15.56;73.43;99847.89;109465;1252;58990;-71
2023/05/09 05:00:36;;;;;;;14.10;12.80;;;;;;;15.62;72.11;99844.23;109472;1252;58963;-71
2023/05/09 05:03:03;;;;;;;15.00;13.40;;;;;;;15.51;70.76;99845.05;109487;1252;59187;-71
2023/05/09 05:05:29;;;;;;;14.30;12.90;;;;;;;15.37;70.14;99843.96;109158;1252;59090;-71
2023/05/09 05:07:56;;;;;;;13.80;12.20;;;;;;;15.26;69.62;99842.41;109494;1252;59078;-71
2023/05/09 05:10:22;;;;;;;13.70;12.30;;;;;;;15.21;69.83;99843.65;109473;1252;64546;-71
2023/05/09 05:12:49;;;;;;;13.50;12.10;;;;;;;15.33;69.98;99841.54;109474;1251;60155;-71
2023/05/09 05:15:18;;;;;;;13.70;12.30;;;;;;;15.46;68.93;99842.05;109438;1252;64054;-71
2023/05/09 05:17:44;;;;;;;13.70;12.30;;;;;;;15.41;67.99;99845.27;109453;1251;59321;-71
2023/05/09 05:20:11;;;;;;;13.60;12.30;;;;;;;15.36;68.09;99844.20;109533;1253;59465;-70
2023/05/09 05:22:37;;;;;;;13.50;12.20;;;;;;;15.30;67.30;99843.90;109502;1252;66142;-70
2023/05/09 05:25:04;;;;;;;15.10;13.10;;;;;;;15.21;67.44;99840.98;109505;1252;60220;-71
2023/05/09 05:27:31;;;;;;;14.40;12.60;;;;;;;15.23;67.05;99840.48;109458;1252;64047;-71
2023/05/09 05:29:57;;;;;;;13.60;12.30;;;;;;;15.21;66.00;99837.61;109330;1252;59031;-71
2023/05/09 05:32:24;;;;;;;12.90;11.70;;;;;;;15.12;66.52;99836.98;109468;1252;59012;-71
2023/05/09 05:34:51;;;;;;;13.40;12.10;;;;;;;15.12;65.73;99836.81;109510;1252;64816;-71
2023/05/09 05:37:17;;;;;;;14.70;13.20;;;;;;;15.00;65.76;99833.74;109499;1252;60259;-72
2023/05/09 05:39:44;;;;;;;14.60;13.20;;;;;;;14.92;65.93;99835.70;109479;1252;59087;-72
2023/05/09 05:42:10;;;;;;;12.10;11.00;;;;;;;14.93;66.00;99833.49;109433;1251;58968;-72
2023/05/09 05:44:37;;;;;;;15.40;12.30;;;;;;;14.98;66.11;99832.79;109482;1252;58946;-72
2023/05/09 05:47:04;;;;;;;13.00;11.80;;;;;;;15.00;65.83;99833.00;109482;1251;66096;-71
2023/05/09 05:49:30;;;;;;;13.50;12.20;;;;;;;14.97;65.51;99830.75;109302;1251;60083;-72
2023/05/09 05:51:56;;;;;;;14.10;12.80;;;;;;;14.87;65.90;99832.33;109493;1252;59009;-72
2023/05/09 05:54:23;;;;;;;13.80;12.50;;;;;;;14.97;66.37;99830.33;109475;1252;58962;-71
2023/05/09 05:56:49;;;;;;;13.00;11.70;;;;;;;15.20;66.68;99828.31;109478;1251;59015;-71
2023/05/09 05:59:16;;;;;;;14.20;12.20;;;;;;;15.40;66.39;99829.91;109450;1252;58957;-71
2023/05/09 06:01:42;;;;;;;14.00;12.50;;;;;;;15.52;65.79;99829.58;109476;1252;59035;-72
2023/05/09 06:04:09;;;;;;;11.40;10.30;;;;;;;15.48;65.63;99829.89;109446;1252;63795;-71
2023/05/09 06:06:35;;;;;;;12.50;11.00;;;;;;;15.35;64.68;99828.45;109486;1252;59050;-72
2023/05/09 06:09:02;;;;;;;13.20;12.00;;;;;;;15.07;64.81;99829.47;109468;1252;59112;-72
2023/05/09 06:11:28;;;;;;;12.10;10.60;;;;;;;14.99;65.53;99828.94;109515;1252;59569;-72
2023/05/09 06:13:55;;;;;;;14.20;10.80;;;;;;;14.93;64.60;99831.86;109493;1252;58931;-72
2023/05/09 06:16:21;;;;;;;11.90;10.70;;;;;;;14.66;64.55;99833.63;109353;1253;64146;-71
2023/05/09 06:18:48;;;;;;;13.00;11.60;;;;;;;14.49;65.17;99829.40;109463;1252;59151;-72
2023/05/09 06:21:15;;;;;;;12.90;11.60;;;;;;;14.47;65.99;99825.81;109453;1252;59012;-71
2023/05/09 06:23:41;;;;;;;13.20;11.70;;;;;;;14.62;66.70;99815.46;109490;1252;66050;-71
2023/05/09 06:26:07;;;;;;;12.60;11.30;;;;;;;14.78;66.06;99809.87;109490;1252;59406;-71
2023/05/09 06:28:34;;;;;;;11.10;10.00;;;;;;;14.71;65.73;99810.73;109485;1252;59032;-71
2023/05/09 06:31:01;;;;;;;11.40;10.20;;;;;;;14.64;65.48;99817.83;109502;1252;58990;-71
2023/05/09 06:33:27;;;;;;;13.20;10.40;;;;;;;14.51;65.48;99812.45;109503;1252;59015;-71
2023/05/09 06:35:54;;;;;;;10.00;9.00;;;;;;;14.47;66.04;99809.74;109506;1252;65061;-71
2023/05/09 06:38:20;;;;;;;10.70;9.70;;;;;;;14.48;66.29;99806.20;109360;1252;59127;-71
2023/05/09 06:40:47;;;;;;;10.60;9.60;;;;;;;14.54;66.64;99803.16;109453;1251;64071;-71
2023/05/09 06:43:13;;;;;;;10.10;8.90;;;;;;;14.67;66.49;99804.38;109449;1251;58958;-71
2023/05/09 06:45:40;;;;;;;11.90;9.00;;;;;;;14.69;65.90;99806.23;109482;1252;59017;-71
2023/05/09 06:48:07;;;;;;;10.50;9.40;;;;;;;14.60;65.91;99801.17;109476;1252;66029;-72
2023/05/09 06:50:33;;;;;;;11.10;8.80;;;;;;;14.57;66.10;99806.19;109475;1251;59287;-72
2023/05/09 06:52:59;;;;;;;9.60;8.60;;;;;;;14.54;65.67;99801.02;109507;1252;59022;-72
2023/05/09 06:55:26;;;;;;;8.80;8.00;;;;;;;14.44;65.42;99801.13;109424;1252;59077;-72
2023/05/09 06:57:52;;;;;;;11.20;8.90;;;;;;;14.28;66.15;99805.34;109537;1252;58935;-71
2023/05/09 07:00:19;;;;;;;10.10;9.00;;;;;;;14.16;65.77;99801.34;109492;1252;66079;-71
2023/05/09 07:02:46;;;;;;;10.10;8.50;;;;;;;13.99;65.63;99806.91;109449;1252;60195;-72
2023/05/09 07:05:12;;;;;;;10.00;8.90;;;;;;;13.86;66.25;99803.73;109474;1252;63974;-71
2023/05/09 07:07:39;;;;;;;9.80;8.70;;;;;;;13.59;66.92;99799.99;109482;1252;58991;-71
2023/05/09 07:10:06;;;;;;;12.30;9.90;;;;;;;13.28;68.03;99792.59;109486;1252;59108;-71
2023/05/09 07:12:33;;;;;;;14.40;10.00;;;;;;;13.04;68.68;99791.59;109453;1252;66100;-71
2023/05/09 07:15:00;;;;;;;9.50;8.50;;;;;;;12.88;69.44;99791.36;109492;1252;60291;-71
2023/05/09 07:17:28;;;;;;;11.70;9.80;;;;;;;12.65;69.50;99788.88;109458;1252;62926;-71
2023/05/09 07:19:55;;;;;;;10.50;9.40;;;;;;;12.36;69.91;99781.81;109499;1252;58958;-71
2023/05/09 07:22:21;;;;;;;11.10;9.90;;;;;;;12.19;70.87;99777.10;109484;1251;59194;-71
2023/05/09 07:24:48;;;;;;;10.90;9.70;;;;;;;12.23;72.07;99771.71;109484;1251;59261;-71
2023/05/09 07:27:14;;;;;;;14.00;10.70;;;;;;;12.21;71.98;99772.36;109514;1252;59006;-72
2023/05/09 07:29:41;;;;;;;10.50;9.50;;;;;;;12.14;71.88;99775.48;109456;1252;62933;-72
2023/05/09 07:32:07;;;;;;;10.70;9.40;;;;;;;12.00;72.14;99782.39;109456;1255;58998;-72
2023/05/09 07:34:34;;;;;;;11.90;9.40;;;;;;;11.97;72.80;99775.99;109525;1252;59047;-71
2023/05/09 07:37:01;;;;;;;11.40;9.70;;;;;;;12.08;73.37;99769.61;109438;1252;66040;-71
2023/05/09 07:39:27;;;;;;;9.90;8.90;;;;;;;12.11;72.86;99765.52;109345;1253;61071;-71
2023/05/09 07:41:54;;;;;;;10.80;8.80;;;;;;;12.09;72.91;99762.08;109404;1251;59047;-71
2023/05/09 07:44:21;;;;;;;10.00;8.80;;;;;;;12.04;72.29;99764.33;109272;1253;58969;-71
2023/05/09 07:46:47;;;;;;;11.00;9.20;;;;;;;11.97;72.95;99759.61;109424;1253;59006;-71
2023/05/09 07:49:14;;;;;;;9.80;8.90;;;;;;;11.99;73.14;99760.86;109488;1252;64723;-71
2023/05/09 07:51:40;;;;;;;9.80;8.80;;;;;;;12.11;73.90;99753.73;109448;1253;59189;-71
2023/05/09 07:54:08;;;;;;;11.10;8.60;;;;;;;12.38;74.67;99752.64;109433;1252;62519;-71
2023/05/09 07:56:35;;;;;;;11.00;8.00;;;;;;;12.64;74.17;99754.41;109452;1252;58996;-71
2023/05/09 07:59:02;;;;;;;9.60;8.60;;;;;;;12.66;72.75;99748.55;109475;1251;59129;-71
2023/05/09 08:01:28;;;;;;;10.20;8.90;;;;;;;12.65;73.72;99750.04;109481;1251;66034;-71
2023/05/09 08:03:55;;;;;;;11.30;9.00;;;;;;;12.86;74.33;99748.35;109537;1252;60098;-71
2023/05/09 08:06:22;;;;;;;9.10;7.90;;;;;;;13.03;73.43;99743.14;109307;1252;59489;-71
2023/05/09 08:08:48;;;;;;;11.00;9.30;;;;;;;13.02;72.77;99742.65;109451;1251;59033;-71
2023/05/09 08:11:15;;;;;;;10.50;9.40;;;;;;;13.05;73.21;99739.95;109475;1252;59080;-71
2023/05/09 08:13:42;;;;;;;9.20;8.40;;;;;;;13.11;72.94;99740.98;109289;1252;59059;-71
2023/05/09 08:16:08;;;;;;;10.70;8.30;;;;;;;13.12;72.28;99735.40;109420;1253;59101;-71
2023/05/09 08:18:35;;;;;;;12.20;8.20;;;;;;;13.16;72.07;99734.27;109474;1251;64131;-71
2023/05/09 08:21:01;;;;;;;10.50;8.90;;;;;;;13.27;72.51;99736.05;109449;1252;59089;-71
2023/05/09 08:23:29;;;;;;;12.50;8.20;;;;;;;13.35;71.64;99736.78;109468;1252;58926;-71
2023/05/09 08:25:55;;;;;;;10.40;7.50;;;;;;;13.40;71.99;99733.27;109454;1253;66011;-71
2023/05/09 08:28:23;;;;;;;7.60;6.80;;;;;;;13.38;71.34;99739.76;109464;1252;59255;-71
2023/05/09 08:30:50;;;;;;;10.10;7.20;;;;;;;13.34;70.88;99738.98;109461;1251;62973;-71
2023/05/09 08:33:17;;;;;;;9.00;6.80;;;;;;;13.30;71.21;99737.48;109480;1252;59159;-71
2023/05/09 08:35:44;;;;;;;7.70;6.90;;;;;;;13.29;70.95;99737.39;109508;1252;59077;-71
2023/05/09 08:38:11;;;;;;;7.60;6.80;;;;;;;13.43;71.17;99738.39;109452;1251;64908;-72
2023/05/09 08:40:39;;;;;;;7.20;6.50;;;;;;;13.47;70.76;99736.86;109321;1253;59075;-72
2023/05/09 08:43:07;;;;;;;7.70;6.60;;;;;;;13.65;71.17;99729.64;109444;1252;63943;-72
2023/05/09 08:45:45;;;;;;;7.30;6.00;;;;;;;13.90;70.54;99730.58;109490;1252;58983;-71
2023/05/09 08:48:15;;;;;;;6.20;5.60;;;;;;;14.11;70.19;99721.28;109468;1251;59100;-71
2023/05/09 08:50:43;;;;;;;6.80;6.10;;;;;;;14.26;69.42;99721.47;109376;1252;64853;-71
2023/05/09 08:53:11;;;;;;;7.10;5.70;;;;;;;14.36;68.42;99721.65;109485;1252;60171;-70
2023/05/09 08:55:38;;;;;;;5.20;4.60;;;;;;;14.42;68.38;99723.66;109464;1252;64083;-70
2023/05/09 08:58:05;;;;;;;6.60;5.20;;;;;;;14.45;68.13;99717.60;109478;1252;59070;-70
2023/05/09 09:00:32;;;;;;;6.10;5.60;;;;;;;14.35;67.81;99716.55;109482;1252;59010;-70
2023/05/09 09:03:02;;;;;;;5.30;4.80;;;;;;;14.37;67.58;99716.36;109523;1252;66103;-70
2023/05/09 09:05:36;;;;;;;5.50;5.00;;;;;;;14.43;66.97;99709.98;109510;1252;59005;-70
2023/05/09 09:08:06;;;;;;;5.80;5.10;;;;;;;14.41;66.89;99708.20;109472;1251;62994;-71
2023/05/09 09:10:33;;;;;;;7.20;5.10;;;;;;;14.42;66.40;99703.70;109434;1252;58922;-70
2023/05/09 09:13:03;;;;;;;7.00;4.70;;;;;;;14.49;66.95;99705.37;109512;1252;59030;-70
2023/05/09 09:15:33;;;;;;;;;;;;;;;14.67;67.15;99700.30;109516;1252;66196;-70
2023/05/09 09:18:05;;;;;;;4.50;4.10;;;;;;;14.75;65.64;99704.90;109489;1252;60122;-70
2023/05/09 09:20:33;;;;;;;5.20;4.70;;;;;;;14.71;65.89;99703.96;109459;1252;64115;-71
2023/05/09 09:23:03;;;;;;;4.90;4.40;;;;;;;14.92;66.24;99704.20;109493;1251;58976;-71
2023/05/09 09:25:30;;;;;;;5.40;4.80;;;;;;;15.10;66.11;99697.83;109499;1251;59388;-71
2023/05/09 09:27:56;;;;;;;4.70;4.30;;;;;;;15.31;65.92;99695.07;109385;1252;60157;-71
2023/05/09 09:30:24;;;;;;;6.80;4.40;;;;;;;15.47;65.02;99699.22;109463;1252;59262;-70
2023/05/09 09:32:50;;;;;;;3.80;3.50;;;;;;;15.54;64.87;99695.64;109422;1251;62866;-71
2023/05/09 09:35:17;;;;;;;4.30;3.50;;;;;;;15.46;63.71;99694.30;109485;1252;59010;-71
2023/05/09 09:37:43;;;;;;;5.70;3.70;;;;;;;15.33;63.53;99691.27;109472;1252;59030;-71
2023/05/09 09:40:11;;;;;;;5.20;3.80;;;;;;;15.49;64.12;99682.75;109506;1252;66018;-71
2023/05/09 09:42:42;;;;;;;3.80;3.40;;;;;;;15.55;61.87;99683.91;109472;1252;59008;-71
2023/05/09 09:45:11;;;;;;;3.80;3.20;;;;;;;15.37;59.51;99680.77;109455;1252;64065;-71
2023/05/09 09:47:39;;;;;;;4.20;3.50;;;;;;;15.22;58.55;99678.55;109463;1252;59019;-71
2023/05/09 09:50:11;;;;;;;5.30;3.10;;;;;;;15.09;59.34;99674.69;109431;1252;59061;-71
2023/05/09 09:52:49;;;;;;;4.60;3.10;;;;;;;15.04;59.57;99672.88;109451;1252;66051;-71
2023/05/09 09:55:17;;;;;;;3.80;3.40;;;;;;;15.23;59.95;99674.33;109366;1253;60244;-71
2023/05/09 09:57:45;;;;;;;3.90;3.10;;;;;;;15.29;58.80;99670.86;109357;1251;64016;-71
2023/05/09 10:00:31;;;;;;;5.30;3.20;;;;;;;15.25;57.90;99672.08;109474;1251;58963;-70
2023/05/09 10:02:58;;;;;;;4.80;3.10;;;;;;;15.14;58.10;99672.17;109235;1255;59181;-71
2023/05/09 10:05:30;;;;;;;5.30;4.20;;;;;;;15.18;57.51;99670.95;109240;1254;66235;-70
2023/05/09 10:08:01;;;;;;;4.00;3.00;;;;;;;15.28;57.51;99667.20;109253;1255;60598;-71
2023/05/09 10:10:33;;;;;;;4.60;3.10;;;;;;;15.49;58.33;99673.27;109239;1255;62857;-71
2023/05/09 10:13:06;;;;;;;6.70;3.20;;;;;;;15.72;57.79;99669.92;109206;1255;59247;-71
2023/05/09 10:15:34;;;;;;;3.50;3.20;;;;;;;15.78;57.25;99663.34;109107;1256;58976;-71
2023/05/09 10:18:03;;;;;;;3.60;3.10;;;;;;;16.02;57.79;99658.82;109127;1256;67225;-71
2023/05/09 10:20:30;;;;;;;4.50;3.30;;;;;;;16.33;57.32;99652.06;109244;1254;60151;-71
2023/05/09 10:23:01;;;;;;;3.30;2.90;;;;;;;16.54;56.76;99650.30;109217;1255;64081;-71
2023/05/09 10:25:38;;;;;;;4.10;2.60;;;;;;;16.62;55.33;99649.86;109211;1255;58990;-71
2023/05/09 10:28:10;;;;;;;3.80;3.10;;;;;;;16.69;54.10;99648.17;109214;1255;59124;-71
2023/05/09 10:30:53;;;;;;;3.30;3.00;;;;;;;16.62;54.20;99645.75;109217;1255;66097;-72
2023/05/09 10:33:25;;;;;;;3.00;2.60;;;;;;;16.69;54.58;99643.58;109258;1255;60166;-70
2023/05/09 10:35:53;;;;;;;3.40;3.10;;;;;;;16.68;53.50;99645.61;109203;1255;64073;-70
2023/05/09 10:38:20;;;;;;;4.30;2.90;;;;;;;16.63;54.27;99643.86;109162;1255;59043;-70
2023/05/09 10:40:47;;;;;;;4.60;2.70;;;;;;;16.72;53.61;99639.76;109340;1252;59288;-70
2023/05/09 10:43:14;;;;;;;3.70;2.80;;;;;;;16.72;53.17;99639.41;109506;1252;64838;-70
2023/05/09 10:45:41;;;;;;;3.10;2.60;;;;;;;16.71;52.41;99636.44;109479;1253;60318;-70
2023/05/09 10:48:08;;;;;;;3.50;2.80;;;;;;;16.79;53.23;99633.60;109462;1252;64016;-70
2023/05/09 10:50:36;;;;;;;5.70;3.50;;;;;;;16.94;52.99;99627.85;109474;1252;58962;-70
2023/05/09 10:53:02;;;;;;;4.80;3.00;;;;;;;17.07;52.76;99622.10;109506;1252;58970;-70
2023/05/09 10:55:55;;;;;;;5.20;2.90;;;;;;;17.12;52.28;99622.60;109499;1252;58954;-70
2023/05/09 10:58:35;;;;;;;5.70;3.30;;;;;;;17.14;52.25;99622.08;109467;1251;59425;-71
2023/05/09 11:01:03;;;;;;;4.80;2.70;;;;;;;17.08;51.55;99623.48;109489;1252;64040;-70
2023/05/09 11:03:55;;;;;;;8.50;3.00;;;;;;;16.92;51.99;99613.48;109476;1251;58931;-70
2023/05/09 11:06:42;;;;;;;4.50;3.30;;;;;;;16.80;51.70;99612.86;109500;1252;58876;-71
2023/05/09 11:09:34;;;;;;;2.90;2.70;;;;;;;16.77;51.58;99608.29;109467;1253;66015;-71
2023/05/09 11:12:04;;;;;;;3.60;2.50;;;;;;;16.64;50.20;99611.46;109575;1252;58988;-70
2023/05/09 11:14:48;;;;;;;2.80;2.50;;;;;;;16.49;50.85;99596.41;109507;1252;64043;-72
2023/05/09 11:17:21;;;;;;;4.10;2.70;;;;;;;16.52;51.30;99599.20;109490;1253;59001;-72
2023/05/09 11:19:48;;;;;;;4.10;2.50;;;;;;;16.62;52.03;99594.95;109529;1252;59074;-70